sensor_id;sensor_type;location;lat;lon;timestamp;temperature;humidity
6792;DHT22;3433;48.730;9.108;2023-03-02T00:01:14;4.40;89.40
6792;DHT22;3433;48.730;9.108;2023-03-02T00:04:02;4.30;89.20
6792;DHT22;3433;48.730;9.108;2023-03-02T00:06:51;4.30;89.40
6792;DHT22;3433;48.730;9.108;2023-03-02T00:09:41;4.30;89.50
6792;DHT22;3433;48.730;9.108;2023-03-02T00:12:31;4.30;89.60
6792;DHT22;3433;48.730;9.108;2023-03-02T00:15:20;4.20;89.60
6792;DHT22;3433;48.730;9.108;2023-03-02T00:18:07;4.20;89.60
6792;DHT22;3433;48.730;9.108;2023-03-02T00:20:54;4.10;89.80
6792;DHT22;3433;48.730;9.108;2023-03-02T00:23:41;4.10;89.70
6792;DHT22;3433;48.730;9.108;2023-03-02T00:26:32;4.10;89.70
6792;DHT22;3433;48.730;9.108;2023-03-02T00:29:19;4.10;89.70
6792;DHT22;3433;48.730;9.108;2023-03-02T00:32:08;4.00;89.70
6792;DHT22;3433;48.730;9.108;2023-03-02T00:34:59;3.90;90.10
6792;DHT22;3433;48.730;9.108;2023-03-02T00:37:47;3.90;90.00
6792;DHT22;3433;48.730;9.108;2023-03-02T00:40:34;3.90;90.20
6792;DHT22;3433;48.730;9.108;2023-03-02T00:43:22;3.90;90.00
6792;DHT22;3433;48.730;9.108;2023-03-02T00:46:14;3.90;89.90
6792;DHT22;3433;48.730;9.108;2023-03-02T00:49:02;3.90;90.00
6792;DHT22;3433;48.730;9.108;2023-03-02T00:51:50;3.80;89.80
6792;DHT22;3433;48.730;9.108;2023-03-02T00:54:37;3.80;90.30
6792;DHT22;3433;48.730;9.108;2023-03-02T00:57:24;3.70;90.00
6792;DHT22;3433;48.730;9.108;2023-03-02T01:00:12;3.70;90.00
6792;DHT22;3433;48.730;9.108;2023-03-02T01:02:59;3.70;90.00
6792;DHT22;3433;48.730;9.108;2023-03-02T01:05:48;3.60;90.10
6792;DHT22;3433;48.730;9.108;2023-03-02T01:08:40;3.60;90.10
6792;DHT22;3433;48.730;9.108;2023-03-02T01:11:27;3.60;90.10
6792;DHT22;3433;48.730;9.108;2023-03-02T01:14:14;3.60;90.20
6792;DHT22;3433;48.730;9.108;2023-03-02T01:17:02;3.60;90.30
6792;DHT22;3433;48.730;9.108;2023-03-02T01:19:50;3.60;90.20
6792;DHT22;3433;48.730;9.108;2023-03-02T01:22:38;3.50;90.50
6792;DHT22;3433;48.730;9.108;2023-03-02T01:25:27;3.60;90.60
6792;DHT22;3433;48.730;9.108;2023-03-02T01:28:14;3.50;90.40
6792;DHT22;3433;48.730;9.108;2023-03-02T01:31:01;3.50;90.40
6792;DHT22;3433;48.730;9.108;2023-03-02T01:33:49;3.50;90.70
6792;DHT22;3433;48.730;9.108;2023-03-02T01:36:36;3.50;90.80
6792;DHT22;3433;48.730;9.108;2023-03-02T01:39:25;3.40;90.70
6792;DHT22;3433;48.730;9.108;2023-03-02T01:42:12;3.40;91.30
6792;DHT22;3433;48.730;9.108;2023-03-02T01:44:59;3.40;90.90
6792;DHT22;3433;48.730;9.108;2023-03-02T01:47:46;3.40;91.00
6792;DHT22;3433;48.730;9.108;2023-03-02T01:50:34;3.40;90.60
6792;DHT22;3433;48.730;9.108;2023-03-02T01:53:23;3.40;90.80
6792;DHT22;3433;48.730;9.108;2023-03-02T01:56:12;3.40;90.70
6792;DHT22;3433;48.730;9.108;2023-03-02T01:59:06;3.40;90.80
6792;DHT22;3433;48.730;9.108;2023-03-02T02:01:56;3.40;90.80
6792;DHT22;3433;48.730;9.108;2023-03-02T02:04:46;3.40;90.80
6792;DHT22;3433;48.730;9.108;2023-03-02T02:07:35;3.30;90.80
6792;DHT22;3433;48.730;9.108;2023-03-02T02:10:22;3.30;90.80
6792;DHT22;3433;48.730;9.108;2023-03-02T02:13:11;3.30;90.90
6792;DHT22;3433;48.730;9.108;2023-03-02T02:15:58;3.30;91.50
6792;DHT22;3433;48.730;9.108;2023-03-02T02:18:45;3.30;91.10
6792;DHT22;3433;48.730;9.108;2023-03-02T02:21:33;3.30;90.80
6792;DHT22;3433;48.730;9.108;2023-03-02T02:24:24;3.30;90.80
6792;DHT22;3433;48.730;9.108;2023-03-02T02:27:15;3.20;91.00
6792;DHT22;3433;48.730;9.108;2023-03-02T02:30:05;3.20;90.80
6792;DHT22;3433;48.730;9.108;2023-03-02T02:32:54;3.20;90.80
6792;DHT22;3433;48.730;9.108;2023-03-02T02:35:45;3.30;91.40
6792;DHT22;3433;48.730;9.108;2023-03-02T02:38:33;3.20;91.00
6792;DHT22;3433;48.730;9.108;2023-03-02T02:41:24;3.10;90.90
6792;DHT22;3433;48.730;9.108;2023-03-02T02:44:15;3.10;91.10
6792;DHT22;3433;48.730;9.108;2023-03-02T02:47:07;3.10;91.30
6792;DHT22;3433;48.730;9.108;2023-03-02T02:50:00;3.00;91.30
6792;DHT22;3433;48.730;9.108;2023-03-02T02:52:53;3.10;91.10
6792;DHT22;3433;48.730;9.108;2023-03-02T02:55:42;3.00;91.40
6792;DHT22;3433;48.730;9.108;2023-03-02T02:58:32;3.00;92.00
6792;DHT22;3433;48.730;9.108;2023-03-02T03:01:23;3.10;91.50
6792;DHT22;3433;48.730;9.108;2023-03-02T03:04:13;3.00;91.20
6792;DHT22;3433;48.730;9.108;2023-03-02T03:07:05;3.00;91.80
6792;DHT22;3433;48.730;9.108;2023-03-02T03:09:55;3.10;91.50
6792;DHT22;3433;48.730;9.108;2023-03-02T03:12:43;3.10;91.70
6792;DHT22;3433;48.730;9.108;2023-03-02T03:15:31;3.00;91.90
6792;DHT22;3433;48.730;9.108;2023-03-02T03:18:23;3.00;91.60
6792;DHT22;3433;48.730;9.108;2023-03-02T03:21:10;3.10;91.50
6792;DHT22;3433;48.730;9.108;2023-03-02T03:23:57;3.10;91.50
6792;DHT22;3433;48.730;9.108;2023-03-02T03:26:44;3.00;91.40
6792;DHT22;3433;48.730;9.108;2023-03-02T03:29:33;3.00;91.40
6792;DHT22;3433;48.730;9.108;2023-03-02T03:32:21;3.00;91.30
6792;DHT22;3433;48.730;9.108;2023-03-02T03:35:10;3.00;91.40
6792;DHT22;3433;48.730;9.108;2023-03-02T03:37:57;3.00;91.30
6792;DHT22;3433;48.730;9.108;2023-03-02T03:40:45;2.90;91.30
6792;DHT22;3433;48.730;9.108;2023-03-02T03:43:32;2.90;91.30
6792;DHT22;3433;48.730;9.108;2023-03-02T03:46:19;2.90;91.40
6792;DHT22;3433;48.730;9.108;2023-03-02T03:49:07;2.80;91.90
6792;DHT22;3433;48.730;9.108;2023-03-02T03:51:55;2.90;91.50
6792;DHT22;3433;48.730;9.108;2023-03-02T03:54:43;2.90;91.50
6792;DHT22;3433;48.730;9.108;2023-03-02T03:57:30;2.90;92.00
6792;DHT22;3433;48.730;9.108;2023-03-02T04:00:19;2.80;91.80
6792;DHT22;3433;48.730;9.108;2023-03-02T04:03:06;2.80;91.70
6792;DHT22;3433;48.730;9.108;2023-03-02T04:05:53;2.80;91.50
6792;DHT22;3433;48.730;9.108;2023-03-02T04:08:42;2.80;91.50
6792;DHT22;3433;48.730;9.108;2023-03-02T04:11:29;2.70;91.60
6792;DHT22;3433;48.730;9.108;2023-03-02T04:14:17;2.70;91.60
6792;DHT22;3433;48.730;9.108;2023-03-02T04:17:05;2.70;91.60
6792;DHT22;3433;48.730;9.108;2023-03-02T04:19:53;2.70;91.60
6792;DHT22;3433;48.730;9.108;2023-03-02T04:22:41;2.70;91.50
6792;DHT22;3433;48.730;9.108;2023-03-02T04:25:30;2.70;91.60
6792;DHT22;3433;48.730;9.108;2023-03-02T04:28:17;2.60;91.60
6792;DHT22;3433;48.730;9.108;2023-03-02T04:31:04;2.70;91.80
6792;DHT22;3433;48.730;9.108;2023-03-02T04:33:52;2.70;91.60
6792;DHT22;3433;48.730;9.108;2023-03-02T04:36:39;2.70;91.70
6792;DHT22;3433;48.730;9.108;2023-03-02T04:39:27;2.60;91.70
6792;DHT22;3433;48.730;9.108;2023-03-02T04:42:15;2.60;91.60
6792;DHT22;3433;48.730;9.108;2023-03-02T04:45:03;2.60;91.90
6792;DHT22;3433;48.730;9.108;2023-03-02T04:47:50;2.70;91.80
6792;DHT22;3433;48.730;9.108;2023-03-02T04:50:37;2.60;91.80
6792;DHT22;3433;48.730;9.108;2023-03-02T04:53:25;2.60;91.90
6792;DHT22;3433;48.730;9.108;2023-03-02T04:56:13;2.60;92.10
6792;DHT22;3433;48.730;9.108;2023-03-02T04:59:01;2.60;91.90
6792;DHT22;3433;48.730;9.108;2023-03-02T05:01:49;2.60;91.90
6792;DHT22;3433;48.730;9.108;2023-03-02T05:04:36;2.70;92.00
6792;DHT22;3433;48.730;9.108;2023-03-02T05:07:30;2.70;92.30
6792;DHT22;3433;48.730;9.108;2023-03-02T05:10:18;2.60;92.10
6792;DHT22;3433;48.730;9.108;2023-03-02T05:13:06;2.60;92.10
6792;DHT22;3433;48.730;9.108;2023-03-02T05:15:54;2.60;92.10
6792;DHT22;3433;48.730;9.108;2023-03-02T05:18:42;2.60;92.00
6792;DHT22;3433;48.730;9.108;2023-03-02T05:21:30;2.60;92.30
6792;DHT22;3433;48.730;9.108;2023-03-02T05:24:17;2.60;92.50
6792;DHT22;3433;48.730;9.108;2023-03-02T05:27:04;2.70;92.50
6792;DHT22;3433;48.730;9.108;2023-03-02T05:29:51;2.70;92.60
6792;DHT22;3433;48.730;9.108;2023-03-02T05:32:40;2.70;92.40
6792;DHT22;3433;48.730;9.108;2023-03-02T05:35:27;2.70;92.50
6792;DHT22;3433;48.730;9.108;2023-03-02T05:38:15;2.70;92.80
6792;DHT22;3433;48.730;9.108;2023-03-02T05:41:05;2.70;92.60
6792;DHT22;3433;48.730;9.108;2023-03-02T05:43:52;2.80;92.90
6792;DHT22;3433;48.730;9.108;2023-03-02T05:46:39;2.80;92.60
6792;DHT22;3433;48.730;9.108;2023-03-02T05:49:28;2.80;92.60
6792;DHT22;3433;48.730;9.108;2023-03-02T05:52:15;2.80;92.90
6792;DHT22;3433;48.730;9.108;2023-03-02T05:55:03;2.90;92.70
6792;DHT22;3433;48.730;9.108;2023-03-02T05:57:50;3.00;92.90
6792;DHT22;3433;48.730;9.108;2023-03-02T06:00:38;3.40;99.90
6792;DHT22;3433;48.730;9.108;2023-03-02T06:03:25;3.80;99.90
6792;DHT22;3433;48.730;9.108;2023-03-02T06:06:14;4.30;99.90
6792;DHT22;3433;48.730;9.108;2023-03-02T06:09:01;4.70;99.90
6792;DHT22;3433;48.730;9.108;2023-03-02T06:11:48;4.70;99.60
6792;DHT22;3433;48.730;9.108;2023-03-02T06:14:35;4.70;98.40
6792;DHT22;3433;48.730;9.108;2023-03-02T06:17:23;4.70;97.70
6792;DHT22;3433;48.730;9.108;2023-03-02T06:20:11;4.50;97.10
6792;DHT22;3433;48.730;9.108;2023-03-02T06:23:00;4.50;96.80
6792;DHT22;3433;48.730;9.108;2023-03-02T06:25:47;4.40;96.50
6792;DHT22;3433;48.730;9.108;2023-03-02T06:28:34;4.30;96.20
6792;DHT22;3433;48.730;9.108;2023-03-02T06:31:21;4.20;96.10
6792;DHT22;3433;48.730;9.108;2023-03-02T06:34:08;4.00;96.10
6792;DHT22;3433;48.730;9.108;2023-03-02T06:36:56;4.00;95.90
6792;DHT22;3433;48.730;9.108;2023-03-02T06:39:44;3.90;96.00
6792;DHT22;3433;48.730;9.108;2023-03-02T06:42:31;3.90;95.80
6792;DHT22;3433;48.730;9.108;2023-03-02T06:45:19;3.80;95.80
6792;DHT22;3433;48.730;9.108;2023-03-02T06:48:06;3.80;95.90
6792;DHT22;3433;48.730;9.108;2023-03-02T06:50:53;3.80;95.70
6792;DHT22;3433;48.730;9.108;2023-03-02T06:53:40;3.80;95.70
6792;DHT22;3433;48.730;9.108;2023-03-02T06:56:32;3.70;95.70
6792;DHT22;3433;48.730;9.108;2023-03-02T06:59:19;3.70;96.40
6792;DHT22;3433;48.730;9.108;2023-03-02T07:02:09;3.70;95.80
6792;DHT22;3433;48.730;9.108;2023-03-02T07:04:56;3.70;95.70
6792;DHT22;3433;48.730;9.108;2023-03-02T07:07:43;3.70;96.10
6792;DHT22;3433;48.730;9.108;2023-03-02T07:10:31;3.70;96.00
6792;DHT22;3433;48.730;9.108;2023-03-02T07:13:19;3.60;96.00
6792;DHT22;3433;48.730;9.108;2023-03-02T07:16:08;3.70;95.70
6792;DHT22;3433;48.730;9.108;2023-03-02T07:18:55;3.60;95.60
6792;DHT22;3433;48.730;9.108;2023-03-02T07:21:42;3.70;95.70
6792;DHT22;3433;48.730;9.108;2023-03-02T07:24:30;3.60;96.00
6792;DHT22;3433;48.730;9.108;2023-03-02T07:27:17;3.70;95.70
6792;DHT22;3433;48.730;9.108;2023-03-02T07:30:07;3.70;95.90
6792;DHT22;3433;48.730;9.108;2023-03-02T07:32:54;3.70;95.80
6792;DHT22;3433;48.730;9.108;2023-03-02T07:35:42;3.70;95.80
6792;DHT22;3433;48.730;9.108;2023-03-02T07:38:29;3.70;95.80
6792;DHT22;3433;48.730;9.108;2023-03-02T07:41:16;3.70;96.00
6792;DHT22;3433;48.730;9.108;2023-03-02T07:44:04;3.70;96.20
6792;DHT22;3433;48.730;9.108;2023-03-02T07:46:53;3.70;96.20
6792;DHT22;3433;48.730;9.108;2023-03-02T07:49:40;3.70;95.80
6792;DHT22;3433;48.730;9.108;2023-03-02T07:52:27;3.90;96.00
6792;DHT22;3433;48.730;9.108;2023-03-02T07:55:15;3.90;95.80
6792;DHT22;3433;48.730;9.108;2023-03-02T07:58:02;3.90;95.90
6792;DHT22;3433;48.730;9.108;2023-03-02T08:00:50;3.90;96.00
6792;DHT22;3433;48.730;9.108;2023-03-02T08:03:38;4.00;96.00
6792;DHT22;3433;48.730;9.108;2023-03-02T08:06:25;4.00;96.10
6792;DHT22;3433;48.730;9.108;2023-03-02T08:09:12;3.90;97.10
6792;DHT22;3433;48.730;9.108;2023-03-02T08:12:00;4.00;96.30
6792;DHT22;3433;48.730;9.108;2023-03-02T08:14:47;4.10;96.30
6792;DHT22;3433;48.730;9.108;2023-03-02T08:17:34;4.10;96.40
6792;DHT22;3433;48.730;9.108;2023-03-02T08:20:23;4.10;96.60
6792;DHT22;3433;48.730;9.108;2023-03-02T08:23:11;4.20;96.40
6792;DHT22;3433;48.730;9.108;2023-03-02T08:25:58;4.30;96.70
6792;DHT22;3433;48.730;9.108;2023-03-02T08:28:46;4.30;96.40
6792;DHT22;3433;48.730;9.108;2023-03-02T08:31:33;4.20;96.50
6792;DHT22;3433;48.730;9.108;2023-03-02T08:34:20;4.20;96.80
6792;DHT22;3433;48.730;9.108;2023-03-02T08:37:09;4.30;96.40
6792;DHT22;3433;48.730;9.108;2023-03-02T08:39:56;4.40;96.30
6792;DHT22;3433;48.730;9.108;2023-03-02T08:42:43;4.40;96.70
6792;DHT22;3433;48.730;9.108;2023-03-02T08:45:30;4.40;96.90
6792;DHT22;3433;48.730;9.108;2023-03-02T08:48:20;4.40;96.60
6792;DHT22;3433;48.730;9.108;2023-03-02T08:51:10;4.50;96.40
6792;DHT22;3433;48.730;9.108;2023-03-02T08:53:59;4.60;96.50
6792;DHT22;3433;48.730;9.108;2023-03-02T08:56:46;4.70;96.40
6792;DHT22;3433;48.730;9.108;2023-03-02T08:59:33;4.80;96.60
6792;DHT22;3433;48.730;9.108;2023-03-02T09:02:21;4.80;96.70
6792;DHT22;3433;48.730;9.108;2023-03-02T09:05:09;4.90;96.80
6792;DHT22;3433;48.730;9.108;2023-03-02T09:07:57;5.10;96.80
6792;DHT22;3433;48.730;9.108;2023-03-02T09:10:45;5.10;96.80
6792;DHT22;3433;48.730;9.108;2023-03-02T09:13:33;5.20;96.80
6792;DHT22;3433;48.730;9.108;2023-03-02T09:16:20;5.30;97.00
6792;DHT22;3433;48.730;9.108;2023-03-02T09:19:09;5.60;96.90
6792;DHT22;3433;48.730;9.108;2023-03-02T09:21:56;5.50;96.80
6792;DHT22;3433;48.730;9.108;2023-03-02T09:24:44;5.60;97.00
6792;DHT22;3433;48.730;9.108;2023-03-02T09:27:32;5.70;96.70
6792;DHT22;3433;48.730;9.108;2023-03-02T09:30:20;5.80;96.70
6792;DHT22;3433;48.730;9.108;2023-03-02T09:33:07;5.90;96.80
6792;DHT22;3433;48.730;9.108;2023-03-02T09:35:54;5.90;96.60
6792;DHT22;3433;48.730;9.108;2023-03-02T09:38:41;6.10;96.60
6792;DHT22;3433;48.730;9.108;2023-03-02T09:45:01;6.00;96.50
6792;DHT22;3433;48.730;9.108;2023-03-02T09:48:00;6.20;96.60
6792;DHT22;3433;48.730;9.108;2023-03-02T09:50:54;6.20;96.70
6792;DHT22;3433;48.730;9.108;2023-03-02T09:53:50;6.30;96.70
6792;DHT22;3433;48.730;9.108;2023-03-02T09:56:41;6.20;96.90
6792;DHT22;3433;48.730;9.108;2023-03-02T09:59:34;6.40;96.60
6792;DHT22;3433;48.730;9.108;2023-03-02T10:02:28;6.40;96.60
6792;DHT22;3433;48.730;9.108;2023-03-02T10:05:19;6.50;96.60
6792;DHT22;3433;48.730;9.108;2023-03-02T10:08:10;6.50;96.50
6792;DHT22;3433;48.730;9.108;2023-03-02T10:11:02;6.60;96.60
6792;DHT22;3433;48.730;9.108;2023-03-02T10:13:56;6.80;96.50
6792;DHT22;3433;48.730;9.108;2023-03-02T10:16:47;6.70;96.40
6792;DHT22;3433;48.730;9.108;2023-03-02T10:19:40;6.70;96.50
6792;DHT22;3433;48.730;9.108;2023-03-02T10:22:32;6.80;96.50
6792;DHT22;3433;48.730;9.108;2023-03-02T10:25:30;6.90;96.50
6792;DHT22;3433;48.730;9.108;2023-03-02T10:28:21;6.90;96.60
6792;DHT22;3433;48.730;9.108;2023-03-02T10:31:13;7.00;96.40
6792;DHT22;3433;48.730;9.108;2023-03-02T10:34:02;7.10;96.30
6792;DHT22;3433;48.730;9.108;2023-03-02T10:36:51;7.10;96.20
6792;DHT22;3433;48.730;9.108;2023-03-02T10:39:38;7.00;96.30
6792;DHT22;3433;48.730;9.108;2023-03-02T10:42:29;7.00;96.40
6792;DHT22;3433;48.730;9.108;2023-03-02T10:45:23;7.00;96.40
6792;DHT22;3433;48.730;9.108;2023-03-02T10:48:13;7.00;96.50
6792;DHT22;3433;48.730;9.108;2023-03-02T10:51:00;7.10;96.50
6792;DHT22;3433;48.730;9.108;2023-03-02T10:54:09;7.10;96.50
6792;DHT22;3433;48.730;9.108;2023-03-02T10:56:59;7.00;96.50
6792;DHT22;3433;48.730;9.108;2023-03-02T10:59:46;7.20;96.60
6792;DHT22;3433;48.730;9.108;2023-03-02T11:02:36;7.30;96.80
6792;DHT22;3433;48.730;9.108;2023-03-02T11:05:29;7.40;96.30
6792;DHT22;3433;48.730;9.108;2023-03-02T11:08:19;7.50;96.30
6792;DHT22;3433;48.730;9.108;2023-03-02T11:11:21;7.50;96.40
6792;DHT22;3433;48.730;9.108;2023-03-02T11:14:23;7.50;96.40
6792;DHT22;3433;48.730;9.108;2023-03-02T11:17:29;7.60;96.40
6792;DHT22;3433;48.730;9.108;2023-03-02T11:20:21;7.60;96.50
6792;DHT22;3433;48.730;9.108;2023-03-02T11:23:17;7.70;96.40
6792;DHT22;3433;48.730;9.108;2023-03-02T11:26:10;7.90;96.20
6792;DHT22;3433;48.730;9.108;2023-03-02T11:29:05;8.00;96.00
6792;DHT22;3433;48.730;9.108;2023-03-02T11:31:58;8.00;96.10
6792;DHT22;3433;48.730;9.108;2023-03-02T11:34:49;8.20;96.50
6792;DHT22;3433;48.730;9.108;2023-03-02T11:37:44;8.30;96.50
6792;DHT22;3433;48.730;9.108;2023-03-02T11:40:35;8.60;95.90
6792;DHT22;3433;48.730;9.108;2023-03-02T11:43:27;8.70;96.10
6792;DHT22;3433;48.730;9.108;2023-03-02T11:46:22;8.80;96.30
6792;DHT22;3433;48.730;9.108;2023-03-02T11:49:14;9.00;96.40
6792;DHT22;3433;48.730;9.108;2023-03-02T11:52:05;9.10;96.30
6792;DHT22;3433;48.730;9.108;2023-03-02T11:54:57;9.60;96.30
6792;DHT22;3433;48.730;9.108;2023-03-02T11:57:48;9.80;95.20
6792;DHT22;3433;48.730;9.108;2023-03-02T12:00:39;10.10;94.60
6792;DHT22;3433;48.730;9.108;2023-03-02T12:03:39;10.00;94.50
6792;DHT22;3433;48.730;9.108;2023-03-02T12:06:34;10.00;94.50
6792;DHT22;3433;48.730;9.108;2023-03-02T12:09:30;10.10;94.70
6792;DHT22;3433;48.730;9.108;2023-03-02T12:12:34;10.50;95.00
6792;DHT22;3433;48.730;9.108;2023-03-02T12:15:28;10.80;94.30
6792;DHT22;3433;48.730;9.108;2023-03-02T12:18:45;10.90;93.50
6792;DHT22;3433;48.730;9.108;2023-03-02T12:21:38;11.20;94.60
6792;DHT22;3433;48.730;9.108;2023-03-02T12:24:28;11.10;93.10
6792;DHT22;3433;48.730;9.108;2023-03-02T12:27:23;11.50;94.40
6792;DHT22;3433;48.730;9.108;2023-03-02T12:30:22;11.80;95.20
6792;DHT22;3433;48.730;9.108;2023-03-02T12:33:19;12.10;93.40
6792;DHT22;3433;48.730;9.108;2023-03-02T12:36:13;12.40;95.10
6792;DHT22;3433;48.730;9.108;2023-03-02T12:39:16;12.70;93.50
6792;DHT22;3433;48.730;9.108;2023-03-02T12:45:48;12.90;92.60
6792;DHT22;3433;48.730;9.108;2023-03-02T12:48:42;13.10;92.70
6792;DHT22;3433;48.730;9.108;2023-03-02T12:51:44;13.50;94.70
6792;DHT22;3433;48.730;9.108;2023-03-02T12:54:33;13.80;92.40
6792;DHT22;3433;48.730;9.108;2023-03-02T12:57:21;14.20;93.80
6792;DHT22;3433;48.730;9.108;2023-03-02T13:00:15;14.30;92.30
6792;DHT22;3433;48.730;9.108;2023-03-02T13:03:03;14.40;91.90
6792;DHT22;3433;48.730;9.108;2023-03-02T13:05:59;14.90;95.10
6792;DHT22;3433;48.730;9.108;2023-03-02T13:08:50;15.10;94.10
6792;DHT22;3433;48.730;9.108;2023-03-02T13:11:38;15.60;94.60
6792;DHT22;3433;48.730;9.108;2023-03-02T13:14:28;16.00;94.30
6792;DHT22;3433;48.730;9.108;2023-03-02T13:17:21;16.30;94.10
6792;DHT22;3433;48.730;9.108;2023-03-02T13:20:12;16.40;93.20
6792;DHT22;3433;48.730;9.108;2023-03-02T13:23:00;16.40;93.10
6792;DHT22;3433;48.730;9.108;2023-03-02T13:25:52;16.50;93.20
6792;DHT22;3433;48.730;9.108;2023-03-02T13:28:39;16.40;92.00
6792;DHT22;3433;48.730;9.108;2023-03-02T13:31:27;16.50;91.50
6792;DHT22;3433;48.730;9.108;2023-03-02T13:34:20;16.30;91.70
6792;DHT22;3433;48.730;9.108;2023-03-02T13:37:21;16.50;92.50
6792;DHT22;3433;48.730;9.108;2023-03-02T13:40:29;16.50;92.00
6792;DHT22;3433;48.730;9.108;2023-03-02T13:43:34;16.70;92.60
6792;DHT22;3433;48.730;9.108;2023-03-02T13:46:32;16.90;92.00
6792;DHT22;3433;48.730;9.108;2023-03-02T13:49:29;16.90;92.20
6792;DHT22;3433;48.730;9.108;2023-03-02T13:52:21;16.90;91.50
6792;DHT22;3433;48.730;9.108;2023-03-02T13:55:13;16.90;91.70
6792;DHT22;3433;48.730;9.108;2023-03-02T13:58:00;16.90;91.90
6792;DHT22;3433;48.730;9.108;2023-03-02T14:00:50;16.90;91.00
6792;DHT22;3433;48.730;9.108;2023-03-02T14:03:37;16.70;86.40
6792;DHT22;3433;48.730;9.108;2023-03-02T14:06:25;16.50;90.00
6792;DHT22;3433;48.730;9.108;2023-03-02T14:09:12;16.50;90.60
6792;DHT22;3433;48.730;9.108;2023-03-02T14:11:59;16.50;90.90
6792;DHT22;3433;48.730;9.108;2023-03-02T14:14:47;16.50;90.30
6792;DHT22;3433;48.730;9.108;2023-03-02T14:17:36;16.40;90.40
6792;DHT22;3433;48.730;9.108;2023-03-02T14:20:23;16.40;91.00
6792;DHT22;3433;48.730;9.108;2023-03-02T14:23:10;16.10;91.00
6792;DHT22;3433;48.730;9.108;2023-03-02T14:25:57;15.90;90.70
6792;DHT22;3433;48.730;9.108;2023-03-02T14:28:45;15.50;89.80
6792;DHT22;3433;48.730;9.108;2023-03-02T14:31:32;15.50;90.80
6792;DHT22;3433;48.730;9.108;2023-03-02T14:34:30;15.50;90.70
6792;DHT22;3433;48.730;9.108;2023-03-02T14:37:21;15.50;90.70
6792;DHT22;3433;48.730;9.108;2023-03-02T14:40:17;15.50;90.90
6792;DHT22;3433;48.730;9.108;2023-03-02T14:43:08;15.50;90.70
6792;DHT22;3433;48.730;9.108;2023-03-02T14:45:55;15.40;90.70
6792;DHT22;3433;48.730;9.108;2023-03-02T14:48:42;15.30;90.90
6792;DHT22;3433;48.730;9.108;2023-03-02T14:51:33;15.30;89.90
6792;DHT22;3433;48.730;9.108;2023-03-02T14:54:21;15.00;90.30
6792;DHT22;3433;48.730;9.108;2023-03-02T14:57:16;14.90;90.10
6792;DHT22;3433;48.730;9.108;2023-03-02T15:00:04;14.80;89.60
6792;DHT22;3433;48.730;9.108;2023-03-02T15:02:52;14.70;90.20
6792;DHT22;3433;48.730;9.108;2023-03-02T15:05:40;14.70;90.10
6792;DHT22;3433;48.730;9.108;2023-03-02T15:08:29;14.50;90.10
6792;DHT22;3433;48.730;9.108;2023-03-02T15:11:16;14.40;90.60
6792;DHT22;3433;48.730;9.108;2023-03-02T15:14:03;14.40;90.50
6792;DHT22;3433;48.730;9.108;2023-03-02T15:16:50;14.40;90.60
6792;DHT22;3433;48.730;9.108;2023-03-02T15:19:38;14.40;90.40
6792;DHT22;3433;48.730;9.108;2023-03-02T15:22:25;14.30;90.50
6792;DHT22;3433;48.730;9.108;2023-03-02T15:25:14;14.30;90.40
6792;DHT22;3433;48.730;9.108;2023-03-02T15:28:03;14.30;90.40
6792;DHT22;3433;48.730;9.108;2023-03-02T15:30:51;14.20;90.20
6792;DHT22;3433;48.730;9.108;2023-03-02T15:33:38;14.00;90.10
6792;DHT22;3433;48.730;9.108;2023-03-02T15:36:26;13.90;90.30
6792;DHT22;3433;48.730;9.108;2023-03-02T15:39:13;13.80;90.80
6792;DHT22;3433;48.730;9.108;2023-03-02T15:42:03;13.70;90.50
6792;DHT22;3433;48.730;9.108;2023-03-02T15:44:50;13.50;90.40
6792;DHT22;3433;48.730;9.108;2023-03-02T15:47:37;13.40;90.40
6792;DHT22;3433;48.730;9.108;2023-03-02T15:50:24;13.30;90.60
6792;DHT22;3433;48.730;9.108;2023-03-02T15:53:12;13.00;90.30
6792;DHT22;3433;48.730;9.108;2023-03-02T15:55:59;12.90;90.40
6792;DHT22;3433;48.730;9.108;2023-03-02T15:58:48;12.70;92.90
6792;DHT22;3433;48.730;9.108;2023-03-02T16:01:35;12.70;92.70
6792;DHT22;3433;48.730;9.108;2023-03-02T16:04:23;12.70;92.10
6792;DHT22;3433;48.730;9.108;2023-03-02T16:07:10;12.70;93.30
6792;DHT22;3433;48.730;9.108;2023-03-02T16:09:57;12.80;93.00
6792;DHT22;3433;48.730;9.108;2023-03-02T16:12:44;12.90;94.40
6792;DHT22;3433;48.730;9.108;2023-03-02T16:15:37;13.10;93.60
6792;DHT22;3433;48.730;9.108;2023-03-02T16:18:25;13.10;92.70
6792;DHT22;3433;48.730;9.108;2023-03-02T16:21:13;13.00;92.00
6792;DHT22;3433;48.730;9.108;2023-03-02T16:24:00;12.80;91.70
6792;DHT22;3433;48.730;9.108;2023-03-02T16:26:51;12.50;91.10
6792;DHT22;3433;48.730;9.108;2023-03-02T16:29:39;12.30;91.20
6792;DHT22;3433;48.730;9.108;2023-03-02T16:32:27;12.10;91.20
6792;DHT22;3433;48.730;9.108;2023-03-02T16:35:15;11.90;91.20
6792;DHT22;3433;48.730;9.108;2023-03-02T16:38:03;11.70;91.10
6792;DHT22;3433;48.730;9.108;2023-03-02T16:40:50;11.60;91.10
6792;DHT22;3433;48.730;9.108;2023-03-02T16:43:43;11.40;91.10
6792;DHT22;3433;48.730;9.108;2023-03-02T16:46:33;11.20;91.30
6792;DHT22;3433;48.730;9.108;2023-03-02T16:49:22;11.10;91.00
6792;DHT22;3433;48.730;9.108;2023-03-02T16:52:10;10.90;90.90
6792;DHT22;3433;48.730;9.108;2023-03-02T16:54:57;10.80;90.90
6792;DHT22;3433;48.730;9.108;2023-03-02T16:57:45;10.60;90.90
6792;DHT22;3433;48.730;9.108;2023-03-02T17:00:32;10.50;90.90
6792;DHT22;3433;48.730;9.108;2023-03-02T17:03:19;10.40;90.90
6792;DHT22;3433;48.730;9.108;2023-03-02T17:06:09;10.20;90.90
6792;DHT22;3433;48.730;9.108;2023-03-02T17:08:56;10.10;90.80
6792;DHT22;3433;48.730;9.108;2023-03-02T17:11:44;10.00;90.80
6792;DHT22;3433;48.730;9.108;2023-03-02T17:14:31;9.80;91.30
6792;DHT22;3433;48.730;9.108;2023-03-02T17:17:18;9.70;91.30
6792;DHT22;3433;48.730;9.108;2023-03-02T17:20:10;9.60;91.30
6792;DHT22;3433;48.730;9.108;2023-03-02T17:22:59;9.50;91.20
6792;DHT22;3433;48.730;9.108;2023-03-02T17:25:47;9.30;91.20
6792;DHT22;3433;48.730;9.108;2023-03-02T17:28:35;9.20;91.10
6792;DHT22;3433;48.730;9.108;2023-03-02T17:31:22;9.10;91.20
6792;DHT22;3433;48.730;9.108;2023-03-02T17:34:10;9.00;91.20
6792;DHT22;3433;48.730;9.108;2023-03-02T17:36:57;8.90;91.30
6792;DHT22;3433;48.730;9.108;2023-03-02T17:39:54;8.90;91.50
6792;DHT22;3433;48.730;9.108;2023-03-02T17:42:45;8.70;91.40
6792;DHT22;3433;48.730;9.108;2023-03-02T17:45:32;8.70;91.50
6792;DHT22;3433;48.730;9.108;2023-03-02T17:48:19;8.60;91.50
6792;DHT22;3433;48.730;9.108;2023-03-02T17:51:07;8.60;91.60
6792;DHT22;3433;48.730;9.108;2023-03-02T17:54:00;8.50;91.50
6792;DHT22;3433;48.730;9.108;2023-03-02T17:56:49;8.50;91.60
6792;DHT22;3433;48.730;9.108;2023-03-02T17:59:36;8.40;91.60
6792;DHT22;3433;48.730;9.108;2023-03-02T18:02:24;8.30;91.80
6792;DHT22;3433;48.730;9.108;2023-03-02T18:05:11;8.20;91.70
6792;DHT22;3433;48.730;9.108;2023-03-02T18:07:59;8.20;91.70
6792;DHT22;3433;48.730;9.108;2023-03-02T18:10:47;8.10;91.70
6792;DHT22;3433;48.730;9.108;2023-03-02T18:13:36;8.00;91.90
6792;DHT22;3433;48.730;9.108;2023-03-02T18:16:26;8.00;91.90
6792;DHT22;3433;48.730;9.108;2023-03-02T18:19:14;7.90;92.00
6792;DHT22;3433;48.730;9.108;2023-03-02T18:22:40;7.80;91.90
6792;DHT22;3433;48.730;9.108;2023-03-02T18:33:38;7.70;92.10
6792;DHT22;3433;48.730;9.108;2023-03-02T18:36:30;7.70;92.40
6792;DHT22;3433;48.730;9.108;2023-03-02T18:39:18;7.60;92.20
6792;DHT22;3433;48.730;9.108;2023-03-02T18:42:05;7.50;92.10
6792;DHT22;3433;48.730;9.108;2023-03-02T18:44:54;7.50;92.90
6792;DHT22;3433;48.730;9.108;2023-03-02T18:47:41;7.40;92.80
6792;DHT22;3433;48.730;9.108;2023-03-02T18:50:29;7.30;92.40
6792;DHT22;3433;48.730;9.108;2023-03-02T18:53:16;7.30;92.60
6792;DHT22;3433;48.730;9.108;2023-03-02T18:56:04;7.30;92.60